Time,TemperatureF,DewpointF,PressureIn,WindDirection,WindDirectionDegrees,WindSpeedMPH,WindSpeedGustMPH,Humidity,HourlyPrecipIn,Conditions,Clouds,dailyrainin,SoftwareType,DateUTC
2013-01-16 00:00:00,15.5,12.8,30.17,South,180,1.0,7.0,89,0.00,,,0.00,Wunderground v.1.15,2013-01-16 06:00:00,
2013-01-16 00:04:00,15.2,12.5,30.17,South,183,1.0,7.0,89,0.00,,,0.00,Wunderground v.1.15,2013-01-16 06:04:00,
2013-01-16 00:08:00,15.2,12.8,30.17,SW,216,1.0,7.0,90,0.00,,,0.00,Wunderground v.1.15,2013-01-16 06:08:00,
2013-01-16 00:10:00,15.2,12.8,30.17,WSW,242,0.0,7.0,90,0.00,,,0.00,Wunderground v.1.15,2013-01-16 06:10:00,
2013-01-16 00:14:00,15.2,12.8,30.16,SSW,208,1.0,7.0,90,0.00,,,0.00,Wunderground v.1.15,2013-01-16 06:14:00,
2013-01-16 00:16:00,15.2,12.8,30.16,SW,226,1.0,7.0,90,0.00,,,0.00,Wunderground v.1.15,2013-01-16 06:16:00,
2013-01-16 00:20:00,15.2,13.0,30.16,South,191,1.0,7.0,91,0.00,,,0.00,Wunderground v.1.15,2013-01-16 06:20:00,
2013-01-16 00:24:00,15.2,13.0,30.16,SSW,194,1.0,7.0,91,0.00,,,0.00,Wunderground v.1.15,2013-01-16 06:24:00,
2013-01-16 00:28:00,15.0,12.6,30.16,South,188,1.0,7.0,90,0.00,,,0.00,Wunderground v.1.15,2013-01-16 06:28:00,
2013-01-16 00:30:00,14.9,12.5,30.16,SSE,158,1.0,1.0,90,0.00,,,0.00,Wunderground v.1.15,2013-01-16 06:30:00,
2013-01-16 00:32:00,14.7,12.3,30.16,SSE,158,1.0,7.0,90,0.00,,,0.00,Wunderground v.1.15,2013-01-16 06:32:00,
2013-01-16 00:34:00,14.6,12.2,30.16,SSE,158,1.0,7.0,90,0.00,,,0.00,Wunderground v.1.15,2013-01-16 06:34:00,
2013-01-16 00:38:00,14.5,12.4,30.16,South,176,1.0,7.0,91,0.00,,,0.00,Wunderground v.1.15,2013-01-16 06:38:00,
2013-01-16 00:40:00,14.4,12.3,30.16,SSE,148,1.0,7.0,91,0.00,,,0.00,Wunderground v.1.15,2013-01-16 06:40:00,
2013-01-16 00:42:00,14.3,12.2,30.16,SSE,165,1.0,7.0,91,0.00,,,0.00,Wunderground v.1.15,2013-01-16 06:42:00,
2013-01-16 00:46:00,14.2,12.1,30.16,SSE,160,1.0,7.0,91,0.00,,,0.00,Wunderground v.1.15,2013-01-16 06:46:00,
2013-01-16 00:48:00,14.0,11.9,30.16,SSE,165,1.0,7.0,91,0.00,,,0.00,Wunderground v.1.15,2013-01-16 06:48:00,
2013-01-16 00:50:00,14.0,11.9,30.16,South,172,1.0,7.0,91,0.00,,,0.00,Wunderground v.1.15,2013-01-16 06:50:00,
2013-01-16 00:52:00,14.0,11.9,30.16,South,169,1.0,7.0,91,0.00,,,0.00,Wunderground v.1.15,2013-01-16 06:52:00,
2013-01-16 00:54:00,14.0,11.9,30.16,South,187,1.0,7.0,91,0.00,,,0.00,Wunderground v.1.15,2013-01-16 06:54:00,
2013-01-16 00:58:00,14.1,12.2,30.16,SSW,197,1.0,7.0,92,0.00,,,0.00,Wunderground v.1.15,2013-01-16 06:58:00,
2013-01-16 01:00:00,14.2,12.3,30.15,South,183,2.0,7.0,92,0.00,,,0.00,Wunderground v.1.15,2013-01-16 07:00:00,
2013-01-16 01:04:00,14.1,12.0,30.15,South,169,1.0,7.0,91,0.00,,,0.00,Wunderground v.1.15,2013-01-16 07:04:00,
2013-01-16 01:06:00,13.9,11.5,30.15,South,169,1.0,7.0,90,0.00,,,0.00,Wunderground v.1.15,2013-01-16 07:06:00,
2013-01-16 01:10:00,13.5,11.1,30.15,SSE,148,1.0,7.0,90,0.00,,,0.00,Wunderground v.1.15,2013-01-16 07:10:00,
2013-01-16 01:14:00,13.6,11.5,30.15,SSE,162,1.0,7.0,91,0.00,,,0.00,Wunderground v.1.15,2013-01-16 07:14:00,
2013-01-16 01:16:00,13.5,11.4,30.15,SSE,158,1.0,7.0,91,0.00,,,0.00,Wunderground v.1.15,2013-01-16 07:16:00,
2013-01-16 01:18:00,13.4,11.3,30.14,SE,141,1.0,7.0,91,0.00,,,0.00,Wunderground v.1.15,2013-01-16 07:18:00,
2013-01-16 01:22:00,13.1,10.7,30.14,SSE,166,1.0,7.0,90,0.00,,,0.00,Wunderground v.1.15,2013-01-16 07:22:00,
2013-01-16 01:28:00,13.0,10.9,30.14,SE,138,1.0,7.0,91,0.00,,,0.00,Wunderground v.1.15,2013-01-16 07:28:00,
2013-01-16 01:30:00,13.0,10.9,30.14,SSE,150,1.0,7.0,91,0.00,,,0.00,Wunderground v.1.15,2013-01-16 07:30:00,
2013-01-16 01:32:00,13.0,10.9,30.14,SSE,154,1.0,7.0,91,0.00,,,0.00,Wunderground v.1.15,2013-01-16 07:32:00,
2013-01-16 01:38:00,13.0,11.1,30.14,SSE,155,1.0,7.0,92,0.00,,,0.00,Wunderground v.1.15,2013-01-16 07:38:00,
2013-01-16 01:40:00,13.0,11.1,30.14,SSE,155,1.0,1.0,92,0.00,,,0.00,Wunderground v.1.15,2013-01-16 07:40:00,
2013-01-16 01:46:00,12.9,10.8,30.13,SSE,152,1.0,7.0,91,0.00,,,0.00,Wunderground v.1.15,2013-01-16 07:46:00,
2013-01-16 01:48:00,12.9,10.8,30.13,South,173,1.0,7.0,91,0.00,,,0.00,Wunderground v.1.15,2013-01-16 07:48:00,
2013-01-16 01:50:00,12.9,10.8,30.13,South,175,1.0,7.0,91,0.00,,,0.00,Wunderground v.1.15,2013-01-16 07:50:00,
2013-01-16 01:56:00,13.5,11.6,30.14,South,184,2.0,7.0,92,0.00,,,0.00,Wunderground v.1.15,2013-01-16 07:56:00,
2013-01-16 01:58:00,13.8,11.9,30.14,SSE,162,3.0,7.0,92,0.00,,,0.00,Wunderground v.1.15,2013-01-16 07:58:00,
2013-01-16 02:02:00,13.8,11.7,30.13,SSE,156,3.0,7.0,91,0.00,,,0.00,Wunderground v.1.15,2013-01-16 08:02:00,
2013-01-16 02:04:00,13.7,11.3,30.14,SSE,156,2.0,7.0,90,0.00,,,0.00,Wunderground v.1.15,2013-01-16 08:04:00,
2013-01-16 02:06:00,13.6,11.0,30.14,SSE,165,2.0,7.0,89,0.00,,,0.00,Wunderground v.1.15,2013-01-16 08:06:00,
2013-01-16 02:10:00,13.2,10.6,30.14,SSE,158,1.0,7.0,89,0.00,,,0.00,Wunderground v.1.15,2013-01-16 08:10:00,
2013-01-16 02:14:00,13.0,10.4,30.14,SE,146,1.0,7.0,89,0.00,,,0.00,Wunderground v.1.15,2013-01-16 08:14:00,
2013-01-16 02:18:00,12.9,10.5,30.14,SSE,166,1.0,7.0,90,0.00,,,0.00,Wunderground v.1.15,2013-01-16 08:18:00,
2013-01-16 02:20:00,12.9,10.5,30.14,South,171,1.0,7.0,90,0.00,,,0.00,Wunderground v.1.15,2013-01-16 08:20:00,
2013-01-16 02:22:00,13.0,10.6,30.14,SSE,165,1.0,7.0,90,0.00,,,0.00,Wunderground v.1.15,2013-01-16 08:22:00,
2013-01-16 02:24:00,13.1,10.7,30.14,South,184,2.0,7.0,90,0.00,,,0.00,Wunderground v.1.15,2013-01-16 08:24:00,
2013-01-16 02:30:00,14.0,11.6,30.13,South,183,3.0,7.0,90,0.00,,,0.00,Wunderground v.1.15,2013-01-16 08:30:00,
2013-01-16 02:32:00,14.3,11.9,30.13,SSW,198,3.0,7.0,90,0.00,,,0.00,Wunderground v.1.15,2013-01-16 08:32:00,
2013-01-16 02:36:00,14.8,12.1,30.13,SSE,154,5.0,7.0,89,0.00,,,0.00,Wunderground v.1.15,2013-01-16 08:36:00,
2013-01-16 02:38:00,14.9,12.0,30.13,SSE,160,5.0,7.0,88,0.00,,,0.00,Wunderground v.1.15,2013-01-16 08:38:00,
2013-01-16 02:40:00,15.1,12.2,30.13,South,169,5.0,7.0,88,0.00,,,0.00,Wunderground v.1.15,2013-01-16 08:40:00,
2013-01-16 02:44:00,15.4,12.2,30.13,SSW,206,5.0,7.0,87,0.00,,,0.00,Wunderground v.1.15,2013-01-16 08:44:00,
2013-01-16 02:48:00,15.7,12.3,30.12,South,175,5.0,7.0,86,0.00,,,0.00,Wunderground v.1.15,2013-01-16 08:48:00,
2013-01-16 02:50:00,15.8,12.4,30.12,South,180,5.0,7.0,86,0.00,,,0.00,Wunderground v.1.15,2013-01-16 08:50:00,
2013-01-16 02:54:00,16.0,12.3,30.12,SSW,195,5.0,7.0,85,0.00,,,0.00,Wunderground v.1.15,2013-01-16 08:54:00,
2013-01-16 02:56:00,16.0,12.0,30.12,SSW,200,5.0,7.0,84,0.00,,,0.00,Wunderground v.1.15,2013-01-16 08:56:00,
2013-01-16 03:02:00,15.7,11.5,30.12,SW,224,4.0,7.0,83,0.00,,,0.00,Wunderground v.1.15,2013-01-16 09:02:00,
2013-01-16 03:04:00,15.5,11.3,30.13,South,188,3.0,7.0,83,0.00,,,0.00,Wunderground v.1.15,2013-01-16 09:04:00,
2013-01-16 03:08:00,15.4,11.2,30.12,South,191,3.0,7.0,83,0.00,,,0.00,Wunderground v.1.15,2013-01-16 09:08:00,
2013-01-16 03:10:00,15.3,11.1,30.12,SSW,201,3.0,3.0,83,0.00,,,0.00,Wunderground v.1.15,2013-01-16 09:10:00,
2013-01-16 03:12:00,15.3,11.1,30.12,SSW,213,3.0,7.0,83,0.00,,,0.00,Wunderground v.1.15,2013-01-16 09:12:00,
2013-01-16 03:16:00,15.3,11.1,30.12,SSW,198,3.0,7.0,83,0.00,,,0.00,Wunderground v.1.15,2013-01-16 09:16:00,
2013-01-16 03:20:00,15.4,11.2,30.11,South,176,3.0,7.0,83,0.00,,,0.00,Wunderground v.1.15,2013-01-16 09:20:00,
2013-01-16 03:24:00,15.0,10.8,30.11,South,181,3.0,7.0,83,0.00,,,0.00,Wunderground v.1.15,2013-01-16 09:24:00,
2013-01-16 03:26:00,14.9,10.7,30.11,South,183,3.0,7.0,83,0.00,,,0.00,Wunderground v.1.15,2013-01-16 09:26:00,
2013-01-16 03:28:00,15.1,11.1,30.11,South,191,3.0,7.0,84,0.00,,,0.00,Wunderground v.1.15,2013-01-16 09:28:00,
2013-01-16 03:30:00,15.2,11.0,30.11,South,181,4.0,7.0,83,0.00,,,0.00,Wunderground v.1.15,2013-01-16 09:30:00,
2013-01-16 03:32:00,15.3,11.1,30.11,South,190,4.0,7.0,83,0.00,,,0.00,Wunderground v.1.15,2013-01-16 09:32:00,
2013-01-16 03:38:00,15.5,11.0,30.10,South,185,4.0,7.0,82,0.00,,,0.00,Wunderground v.1.15,2013-01-16 09:38:00,
2013-01-16 03:40:00,15.5,11.0,30.10,SSW,211,4.0,7.0,82,0.00,,,0.00,Wunderground v.1.15,2013-01-16 09:40:00,
2013-01-16 03:42:00,15.5,11.0,30.10,SSW,200,5.0,7.0,82,0.00,,,0.00,Wunderground v.1.15,2013-01-16 09:42:00,
2013-01-16 03:44:00,15.5,11.0,30.10,SSW,198,5.0,7.0,82,0.00,,,0.00,Wunderground v.1.15,2013-01-16 09:44:00,
2013-01-16 03:48:00,15.5,11.0,30.10,South,188,5.0,7.0,82,0.00,,,0.00,Wunderground v.1.15,2013-01-16 09:48:00,
2013-01-16 03:50:00,15.5,11.0,30.09,SSW,195,5.0,7.0,82,0.00,,,0.00,Wunderground v.1.15,2013-01-16 09:50:00,
2013-01-16 03:54:00,15.4,10.9,30.09,South,188,5.0,7.0,82,0.00,,,0.00,Wunderground v.1.15,2013-01-16 09:54:00,
2013-01-16 03:56:00,15.4,10.9,30.09,South,190,4.0,7.0,82,0.00,,,0.00,Wunderground v.1.15,2013-01-16 09:56:00,
2013-01-16 04:00:00,15.2,10.4,30.09,South,177,4.0,4.0,81,0.00,,,0.00,Wunderground v.1.15,2013-01-16 10:00:00,
2013-01-16 04:02:00,15.1,10.3,30.08,South,181,4.0,5.0,81,0.00,,,0.00,Wunderground v.1.15,2013-01-16 10:02:00,
2013-01-16 04:04:00,14.9,10.1,30.08,South,179,4.0,7.0,81,0.00,,,0.00,Wunderground v.1.15,2013-01-16 10:04:00,
2013-01-16 04:08:00,14.9,10.4,30.08,South,175,5.0,7.0,82,0.00,,,0.00,Wunderground v.1.15,2013-01-16 10:08:00,
2013-01-16 04:10:00,15.0,10.5,30.08,South,181,5.0,7.0,82,0.00,,,0.00,Wunderground v.1.15,2013-01-16 10:10:00,
2013-01-16 04:12:00,15.0,10.5,30.08,South,188,5.0,7.0,82,0.00,,,0.00,Wunderground v.1.15,2013-01-16 10:12:00,
2013-01-16 04:14:00,15.1,10.6,30.08,South,188,5.0,7.0,82,0.00,,,0.00,Wunderground v.1.15,2013-01-16 10:14:00,
2013-01-16 04:20:00,15.1,10.3,30.07,SSW,203,6.0,6.0,81,0.00,,,0.00,Wunderground v.1.15,2013-01-16 10:20:00,
2013-01-16 04:24:00,16.5,11.7,30.07,SSW,194,6.0,7.0,81,0.00,,,0.00,Wunderground v.1.15,2013-01-16 10:24:00,
2013-01-16 04:26:00,16.5,11.7,30.07,SSW,194,4.0,7.0,81,0.00,,,0.00,Wunderground v.1.15,2013-01-16 10:26:00,
2013-01-16 04:30:00,16.5,11.7,30.06,SSW,194,4.0,7.0,81,0.00,,,0.00,Wunderground v.1.15,2013-01-16 10:30:00,
2013-01-16 04:32:00,-999.9,-99.9,30.06,North,32767,-999.0,7.0,255,-99.99,,,0.00,Wunderground v.1.15,2013-01-16 10:32:00,
2013-01-16 04:34:00,-999.9,-99.9,30.06,North,32767,-999.0,7.0,255,-99.99,,,0.00,Wunderground v.1.15,2013-01-16 10:34:00,
2013-01-16 04:38:00,-999.9,-99.9,30.06,North,32767,-999.0,7.0,255,-99.99,,,0.00,Wunderground v.1.15,2013-01-16 10:38:00,
2013-01-16 04:40:00,-999.9,-99.9,30.05,North,32767,-999.0,7.0,255,-99.99,,,0.00,Wunderground v.1.15,2013-01-16 10:40:00,
2013-01-16 04:42:00,-999.9,-99.9,30.06,North,32767,-999.0,7.0,255,-99.99,,,0.00,Wunderground v.1.15,2013-01-16 10:42:00,
2013-01-16 04:46:00,-999.9,-99.9,30.05,North,32767,-999.0,7.0,255,-99.99,,,0.00,Wunderground v.1.15,2013-01-16 10:46:00,
2013-01-16 04:48:00,-999.9,-99.9,30.05,North,32767,-999.0,7.0,255,-99.99,,,0.00,Wunderground v.1.15,2013-01-16 10:48:00,
2013-01-16 04:52:00,-999.9,-99.9,30.05,North,32767,-999.0,7.0,255,-99.99,,,0.00,Wunderground v.1.15,2013-01-16 10:52:00,
2013-01-16 04:58:00,-999.9,-99.9,30.05,North,32767,-999.0,7.0,255,-99.99,,,0.00,Wunderground v.1.15,2013-01-16 10:58:00,
2013-01-16 05:00:00,-999.9,-99.9,30.05,North,32767,-999.0,7.0,255,-99.99,,,0.00,Wunderground v.1.15,2013-01-16 11:00:00,
2013-01-16 05:02:00,-999.9,-99.9,30.05,North,32767,-999.0,7.0,255,-99.99,,,0.00,Wunderground v.1.15,2013-01-16 11:02:00,
2013-01-16 05:08:00,-999.9,-99.9,30.05,North,32767,-999.0,7.0,255,-99.99,,,0.00,Wunderground v.1.15,2013-01-16 11:08:00,
2013-01-16 05:10:00,-999.9,-99.9,30.05,North,32767,-999.0,7.0,255,-99.99,,,0.00,Wunderground v.1.15,2013-01-16 11:10:00,
2013-01-16 05:16:00,-999.9,-99.9,30.05,North,32767,-999.0,7.0,255,-99.99,,,0.00,Wunderground v.1.15,2013-01-16 11:16:00,
2013-01-16 05:22:00,-999.9,-99.9,30.05,North,32767,-999.0,7.0,255,-99.99,,,0.00,Wunderground v.1.15,2013-01-16 11:22:00,
2013-01-16 05:24:00,-999.9,-99.9,30.05,North,32767,-999.0,7.0,255,-99.99,,,0.00,Wunderground v.1.15,2013-01-16 11:24:00,
2013-01-16 05:28:00,-999.9,-99.9,30.04,North,32767,-999.0,7.0,255,-99.99,,,0.00,Wunderground v.1.15,2013-01-16 11:28:00,
2013-01-16 05:34:00,-999.9,-99.9,30.04,North,32767,-999.0,7.0,255,-99.99,,,0.00,Wunderground v.1.15,2013-01-16 11:34:00,
2013-01-16 05:36:00,-999.9,-99.9,30.04,North,32767,-999.0,7.0,255,-99.99,,,0.00,Wunderground v.1.15,2013-01-16 11:36:00,
2013-01-16 05:40:00,-999.9,-99.9,30.04,North,32767,-999.0,7.0,255,-99.99,,,0.00,Wunderground v.1.15,2013-01-16 11:40:00,
2013-01-16 05:46:00,-999.9,-99.9,30.04,North,32767,-999.0,7.0,255,-99.99,,,0.00,Wunderground v.1.15,2013-01-16 11:46:00,
2013-01-16 05:48:00,-999.9,-99.9,30.04,North,32767,-999.0,7.0,255,-99.99,,,0.00,Wunderground v.1.15,2013-01-16 11:48:00,
2013-01-16 05:50:00,-999.9,-99.9,30.04,North,32767,-999.0,7.0,255,-99.99,,,0.00,Wunderground v.1.15,2013-01-16 11:50:00,
2013-01-16 05:52:00,-999.9,-99.9,30.04,North,32767,-999.0,7.0,255,-99.99,,,0.00,Wunderground v.1.15,2013-01-16 11:52:00,
2013-01-16 05:54:00,-999.9,-99.9,30.04,North,32767,-999.0,7.0,255,-99.99,,,0.00,Wunderground v.1.15,2013-01-16 11:54:00,
2013-01-16 05:56:00,-999.9,-99.9,30.04,North,32767,-999.0,7.0,255,-99.99,,,0.00,Wunderground v.1.15,2013-01-16 11:56:00,
2013-01-16 06:00:00,-999.9,-99.9,30.03,North,32767,-999.0,7.0,255,-99.99,,,0.00,Wunderground v.1.15,2013-01-16 12:00:00,
2013-01-16 06:02:00,-999.9,-99.9,30.04,North,32767,-999.0,7.0,255,-99.99,,,0.00,Wunderground v.1.15,2013-01-16 12:02:00,
2013-01-16 06:06:00,-999.9,-99.9,30.03,North,32767,-999.0,7.0,255,-99.99,,,0.00,Wunderground v.1.15,2013-01-16 12:06:00,
2013-01-16 06:08:00,-999.9,-99.9,30.03,North,32767,-999.0,7.0,255,-99.99,,,0.00,Wunderground v.1.15,2013-01-16 12:08:00,
2013-01-16 06:12:00,-999.9,-99.9,30.03,North,32767,-999.0,7.0,255,-99.99,,,0.00,Wunderground v.1.15,2013-01-16 12:12:00,
2013-01-16 06:14:00,-999.9,-99.9,30.03,North,32767,-999.0,7.0,255,-99.99,,,0.00,Wunderground v.1.15,2013-01-16 12:14:00,
2013-01-16 06:16:00,-999.9,-99.9,30.03,North,32767,-999.0,7.0,255,-99.99,,,0.00,Wunderground v.1.15,2013-01-16 12:16:00,
2013-01-16 06:18:00,-999.9,-99.9,30.03,North,32767,-999.0,7.0,255,-99.99,,,0.00,Wunderground v.1.15,2013-01-16 12:18:00,
2013-01-16 06:20:00,-999.9,-99.9,30.02,North,32767,-999.0,7.0,255,-99.99,,,0.00,Wunderground v.1.15,2013-01-16 12:20:00,
2013-01-16 06:24:00,-999.9,-99.9,30.02,North,32767,-999.0,7.0,255,-99.99,,,0.00,Wunderground v.1.15,2013-01-16 12:24:00,
2013-01-16 06:26:00,-999.9,-99.9,30.02,North,32767,-999.0,7.0,255,-99.99,,,0.00,Wunderground v.1.15,2013-01-16 12:26:00,
2013-01-16 06:30:00,-999.9,-99.9,30.02,North,32767,-999.0,7.0,255,-99.99,,,0.00,Wunderground v.1.15,2013-01-16 12:30:00,
2013-01-16 06:32:00,-999.9,-99.9,30.01,North,32767,-999.0,7.0,255,-99.99,,,0.00,Wunderground v.1.15,2013-01-16 12:32:00,
2013-01-16 06:36:00,-999.9,-99.9,30.01,North,32767,-999.0,7.0,255,-99.99,,,0.00,Wunderground v.1.15,2013-01-16 12:36:00,
2013-01-16 06:38:00,-999.9,-99.9,30.01,North,32767,-999.0,7.0,255,-99.99,,,0.00,Wunderground v.1.15,2013-01-16 12:38:00,
2013-01-16 06:44:00,-999.9,-99.9,30.01,North,32767,-999.0,7.0,255,-99.99,,,0.00,Wunderground v.1.15,2013-01-16 12:44:00,
2013-01-16 06:46:00,-999.9,-99.9,30.01,North,32767,-999.0,7.0,255,-99.99,,,0.00,Wunderground v.1.15,2013-01-16 12:46:00,
2013-01-16 06:50:00,-999.9,-99.9,30.01,North,32767,-999.0,7.0,255,-99.99,,,0.00,Wunderground v.1.15,2013-01-16 12:50:00,
2013-01-16 06:52:00,-999.9,-99.9,30.01,North,32767,-999.0,7.0,255,-99.99,,,0.00,Wunderground v.1.15,2013-01-16 12:52:00,
2013-01-16 06:56:00,-999.9,-99.9,30.01,North,32767,-999.0,7.0,255,-99.99,,,0.00,Wunderground v.1.15,2013-01-16 12:56:00,
2013-01-16 07:00:00,-999.9,-99.9,30.01,North,32767,-999.0,7.0,255,-99.99,,,0.00,Wunderground v.1.15,2013-01-16 13:00:00,
2013-01-16 07:02:00,-999.9,-99.9,30.01,North,32767,-999.0,7.0,255,-99.99,,,0.00,Wunderground v.1.15,2013-01-16 13:02:00,
2013-01-16 07:04:00,-999.9,-99.9,30.01,North,32767,-999.0,7.0,255,-99.99,,,0.00,Wunderground v.1.15,2013-01-16 13:04:00,
2013-01-16 07:08:00,-999.9,-99.9,30.00,North,32767,-999.0,7.0,255,-99.99,,,0.00,Wunderground v.1.15,2013-01-16 13:08:00,
2013-01-16 07:10:00,-999.9,-99.9,30.00,North,32767,-999.0,7.0,255,-99.99,,,0.00,Wunderground v.1.15,2013-01-16 13:10:00,
2013-01-16 07:12:00,-999.9,-99.9,30.00,North,32767,-999.0,7.0,255,-99.99,,,0.00,Wunderground v.1.15,2013-01-16 13:12:00,
2013-01-16 07:16:00,-999.9,-99.9,30.00,North,32767,-999.0,7.0,255,-99.99,,,0.00,Wunderground v.1.15,2013-01-16 13:16:00,
2013-01-16 07:20:00,-999.9,-99.9,30.01,North,32767,-999.0,7.0,255,-99.99,,,0.00,Wunderground v.1.15,2013-01-16 13:20:00,
2013-01-16 07:24:00,-999.9,-99.9,30.01,North,32767,-999.0,7.0,255,-99.99,,,0.00,Wunderground v.1.15,2013-01-16 13:24:00,
2013-01-16 07:30:00,-999.9,-99.9,30.01,North,32767,-999.0,7.0,255,-99.99,,,0.00,Wunderground v.1.15,2013-01-16 13:30:00,
2013-01-16 07:34:00,-999.9,-99.9,30.01,North,32767,-999.0,7.0,255,-99.99,,,0.00,Wunderground v.1.15,2013-01-16 13:34:00,
2013-01-16 07:36:00,-999.9,-99.9,30.01,North,32767,-999.0,7.0,255,-99.99,,,0.00,Wunderground v.1.15,2013-01-16 13:36:00,
2013-01-16 07:40:00,-999.9,-99.9,30.01,North,32767,-999.0,7.0,255,-99.99,,,0.00,Wunderground v.1.15,2013-01-16 13:40:00,
2013-01-16 07:44:00,17.9,12.2,30.01,WSW,257,6.0,7.0,78,0.00,,,0.00,Wunderground v.1.15,2013-01-16 13:44:00,
2013-01-16 07:48:00,18.1,12.4,30.01,West,262,5.0,7.0,78,0.00,,,0.00,Wunderground v.1.15,2013-01-16 13:48:00,
2013-01-16 07:50:00,18.2,12.5,30.01,SSW,211,7.0,7.0,78,0.00,,,0.00,Wunderground v.1.15,2013-01-16 13:50:00,
2013-01-16 07:52:00,18.2,12.5,30.01,South,186,7.0,9.0,78,0.00,,,0.00,Wunderground v.1.15,2013-01-16 13:52:00,
2013-01-16 07:54:00,18.3,12.6,30.01,South,186,7.0,10.0,78,0.00,,,0.00,Wunderground v.1.15,2013-01-16 13:54:00,
2013-01-16 07:56:00,18.5,12.8,30.00,SW,219,7.0,10.0,78,0.00,,,0.00,Wunderground v.1.15,2013-01-16 13:56:00,
2013-01-16 07:58:00,18.6,12.9,30.00,SSW,210,8.0,10.0,78,0.00,,,0.00,Wunderground v.1.15,2013-01-16 13:58:00,
2013-01-16 08:04:00,19.0,13.3,30.01,SW,222,8.0,11.0,78,0.00,,,0.00,Wunderground v.1.15,2013-01-16 14:04:00,
2013-01-16 08:06:00,19.1,13.1,30.01,SSW,200,8.0,11.0,77,0.00,,,0.00,Wunderground v.1.15,2013-01-16 14:06:00,
2013-01-16 08:08:00,19.3,13.3,30.01,SSW,210,7.0,11.0,77,0.00,,,0.00,Wunderground v.1.15,2013-01-16 14:08:00,
2013-01-16 08:12:00,19.4,13.4,30.01,South,183,8.0,8.0,77,0.00,,,0.00,Wunderground v.1.15,2013-01-16 14:12:00,
2013-01-16 08:14:00,19.5,13.5,30.01,SW,226,8.0,8.0,77,0.00,,,0.00,Wunderground v.1.15,2013-01-16 14:14:00,
2013-01-16 08:18:00,19.6,13.6,30.01,SW,219,8.0,9.0,77,0.00,,,0.00,Wunderground v.1.15,2013-01-16 14:18:00,
2013-01-16 08:20:00,19.6,13.6,30.01,WSW,253,8.0,8.0,77,0.00,,,0.00,Wunderground v.1.15,2013-01-16 14:20:00,
2013-01-16 08:22:00,19.7,13.7,30.01,WSW,248,8.0,11.0,77,0.00,,,0.00,Wunderground v.1.15,2013-01-16 14:22:00,
2013-01-16 08:24:00,19.8,13.8,30.01,WSW,255,9.0,11.0,77,0.00,,,0.00,Wunderground v.1.15,2013-01-16 14:24:00,
2013-01-16 08:30:00,20.0,13.9,30.00,SSW,206,9.0,9.0,77,0.00,,,0.00,Wunderground v.1.15,2013-01-16 14:30:00,
2013-01-16 08:32:00,20.1,14.0,30.00,SSW,200,9.0,11.0,77,0.00,,,0.00,Wunderground v.1.15,2013-01-16 14:32:00,
2013-01-16 08:34:00,20.2,14.1,30.00,South,181,9.0,11.0,77,0.00,,,0.00,Wunderground v.1.15,2013-01-16 14:34:00,
2013-01-16 08:36:00,20.3,14.5,30.00,SW,228,8.0,11.0,78,0.00,,,0.00,Wunderground v.1.15,2013-01-16 14:36:00,
2013-01-16 08:38:00,20.4,14.3,30.00,SW,236,8.0,11.0,77,0.00,,,0.00,Wunderground v.1.15,2013-01-16 14:38:00,
2013-01-16 08:40:00,20.5,14.4,30.00,SW,224,9.0,9.0,77,0.00,,,0.00,Wunderground v.1.15,2013-01-16 14:40:00,
2013-01-16 08:42:00,20.7,14.6,30.00,SW,220,9.0,11.0,77,0.00,,,0.00,Wunderground v.1.15,2013-01-16 14:42:00,
2013-01-16 08:46:00,20.9,14.8,30.00,WSW,252,9.0,11.0,77,0.00,,,0.00,Wunderground v.1.15,2013-01-16 14:46:00,
2013-01-16 08:48:00,21.1,15.0,30.00,SSW,203,9.0,11.0,77,0.00,,,0.00,Wunderground v.1.15,2013-01-16 14:48:00,
2013-01-16 08:50:00,21.1,14.7,30.00,SW,217,9.0,9.0,76,0.00,,,0.00,Wunderground v.1.15,2013-01-16 14:50:00,
2013-01-16 08:54:00,21.3,14.9,30.00,West,262,9.0,9.0,76,0.00,,,0.00,Wunderground v.1.15,2013-01-16 14:54:00,
2013-01-16 08:56:00,21.3,14.9,30.00,SW,215,10.0,10.0,76,0.00,,,0.00,Wunderground v.1.15,2013-01-16 14:56:00,
2013-01-16 09:02:00,21.6,15.5,29.99,WSW,248,10.0,12.0,77,0.00,,,0.00,Wunderground v.1.15,2013-01-16 15:02:00,
2013-01-16 09:04:00,21.7,15.3,29.99,SSW,203,10.0,14.0,76,0.00,,,0.00,Wunderground v.1.15,2013-01-16 15:04:00,
2013-01-16 09:10:00,22.0,15.6,29.98,SW,219,11.0,16.0,76,0.00,,,0.00,Wunderground v.1.15,2013-01-16 15:10:00,
2013-01-16 09:12:00,22.1,15.4,29.98,SSW,208,12.0,16.0,75,0.00,,,0.00,Wunderground v.1.15,2013-01-16 15:12:00,
2013-01-16 09:16:00,22.4,15.7,29.98,South,176,12.0,16.0,75,0.00,,,0.00,Wunderground v.1.15,2013-01-16 15:16:00,
2013-01-16 09:18:00,22.5,15.8,29.99,WSW,240,12.0,16.0,75,0.00,,,0.00,Wunderground v.1.15,2013-01-16 15:18:00,
2013-01-16 09:20:00,22.7,16.3,29.98,SSW,210,12.0,13.0,76,0.00,,,0.00,Wunderground v.1.15,2013-01-16 15:20:00,
2013-01-16 09:24:00,23.0,16.9,29.98,SSW,200,11.0,13.0,77,0.00,,,0.00,Wunderground v.1.15,2013-01-16 15:24:00,
2013-01-16 09:26:00,23.1,16.7,29.98,SW,219,11.0,14.0,76,0.00,,,0.00,Wunderground v.1.15,2013-01-16 15:26:00,
2013-01-16 09:30:00,23.5,16.7,29.98,SW,219,11.0,11.0,75,0.00,,,0.00,Wunderground v.1.15,2013-01-16 15:30:00,
2013-01-16 09:32:00,23.6,16.8,29.98,SW,215,11.0,11.0,75,0.00,,,0.00,Wunderground v.1.15,2013-01-16 15:32:00,
2013-01-16 09:34:00,23.7,16.9,29.98,SW,225,11.0,11.0,75,0.00,,,0.00,Wunderground v.1.15,2013-01-16 15:34:00,
2013-01-16 09:36:00,23.9,17.4,29.98,South,177,11.0,11.0,76,0.00,,,0.00,Wunderground v.1.15,2013-01-16 15:36:00,
2013-01-16 09:40:00,24.2,17.4,29.97,WSW,241,11.0,13.0,75,0.00,,,0.00,Wunderground v.1.15,2013-01-16 15:40:00,
2013-01-16 09:44:00,24.5,17.7,29.97,South,181,11.0,13.0,75,0.00,,,0.00,Wunderground v.1.15,2013-01-16 15:44:00,
2013-01-16 09:48:00,24.9,18.1,29.97,WSW,256,12.0,13.0,75,0.00,,,0.00,Wunderground v.1.15,2013-01-16 15:48:00,
2013-01-16 09:50:00,25.0,18.2,29.97,WSW,242,12.0,17.0,75,0.00,,,0.00,Wunderground v.1.15,2013-01-16 15:50:00,
2013-01-16 09:52:00,25.1,18.3,29.97,SW,217,12.0,17.0,75,0.00,,,0.00,Wunderground v.1.15,2013-01-16 15:52:00,
2013-01-16 09:54:00,25.3,18.5,29.97,SSW,212,13.0,17.0,75,0.00,,,0.00,Wunderground v.1.15,2013-01-16 15:54:00,
2013-01-16 09:58:00,25.7,19.2,29.97,SW,235,13.0,17.0,76,0.00,,,0.00,Wunderground v.1.15,2013-01-16 15:58:00,
2013-01-16 10:02:00,26.0,18.8,29.97,SW,226,13.0,17.0,74,0.00,,,0.00,Wunderground v.1.15,2013-01-16 16:02:00,
2013-01-16 10:04:00,26.1,19.3,29.98,SSW,205,13.0,17.0,75,0.00,,,0.00,Wunderground v.1.15,2013-01-16 16:04:00,
2013-01-16 10:06:00,26.2,19.4,29.98,SW,226,13.0,17.0,75,0.00,,,0.00,Wunderground v.1.15,2013-01-16 16:06:00,
2013-01-16 10:08:00,26.4,19.5,29.98,SSW,208,14.0,17.0,75,0.00,,,0.00,Wunderground v.1.15,2013-01-16 16:08:00,
2013-01-16 10:12:00,26.5,19.3,29.98,SW,215,15.0,18.0,74,0.00,,,0.00,Wunderground v.1.15,2013-01-16 16:12:00,
2013-01-16 10:16:00,26.6,19.7,29.97,WSW,245,15.0,18.0,75,0.00,,,0.00,Wunderground v.1.15,2013-01-16 16:16:00,
2013-01-16 10:18:00,26.7,19.8,29.97,SW,231,15.0,18.0,75,0.00,,,0.00,Wunderground v.1.15,2013-01-16 16:18:00,
2013-01-16 10:24:00,26.9,20.0,29.96,WSW,238,15.0,21.0,75,0.00,,,0.00,Wunderground v.1.15,2013-01-16 16:24:00,
2013-01-16 10:28:00,27.0,19.8,29.96,West,259,16.0,21.0,74,0.00,,,0.00,Wunderground v.1.15,2013-01-16 16:28:00,
2013-01-16 10:34:00,27.4,20.5,29.96,SW,219,16.0,25.0,75,0.00,,,0.00,Wunderground v.1.15,2013-01-16 16:34:00,
2013-01-16 10:36:00,27.5,20.6,29.95,SW,226,16.0,25.0,75,0.00,,,0.00,Wunderground v.1.15,2013-01-16 16:36:00,
2013-01-16 10:42:00,27.9,21.0,29.95,South,180,15.0,16.0,75,0.00,,,0.00,Wunderground v.1.15,2013-01-16 16:42:00,
2013-01-16 10:44:00,28.1,21.2,29.95,SW,235,15.0,16.0,75,0.00,,,0.00,Wunderground v.1.15,2013-01-16 16:44:00,
2013-01-16 10:50:00,28.2,21.3,29.94,SW,231,15.0,19.0,75,0.00,,,0.00,Wunderground v.1.15,2013-01-16 16:50:00,
2013-01-16 10:52:00,28.3,21.4,29.94,SW,225,16.0,19.0,75,0.00,,,0.00,Wunderground v.1.15,2013-01-16 16:52:00,
2013-01-16 10:56:00,28.4,21.5,29.94,WSW,243,16.0,19.0,75,0.00,,,0.00,Wunderground v.1.15,2013-01-16 16:56:00,
2013-01-16 10:58:00,28.6,21.7,29.94,SW,225,17.0,19.0,75,0.00,,,0.00,Wunderground v.1.15,2013-01-16 16:58:00,
2013-01-16 11:00:00,28.8,21.9,29.94,SW,221,17.0,17.0,75,0.00,,,0.00,Wunderground v.1.15,2013-01-16 17:00:00,
2013-01-16 11:04:00,29.1,22.5,29.94,SW,235,16.0,17.0,76,0.00,,,0.00,Wunderground v.1.15,2013-01-16 17:04:00,
2013-01-16 11:06:00,29.2,22.6,29.94,SW,214,16.0,17.0,76,0.00,,,0.00,Wunderground v.1.15,2013-01-16 17:06:00,
2013-01-16 11:08:00,29.3,22.0,29.93,WSW,240,16.0,20.0,74,0.00,,,0.00,Wunderground v.1.15,2013-01-16 17:08:00,
2013-01-16 11:10:00,29.3,22.4,29.93,WSW,242,16.0,16.0,75,0.00,,,0.00,Wunderground v.1.15,2013-01-16 17:10:00,
2013-01-16 11:12:00,29.5,22.9,29.93,SSW,198,16.0,22.0,76,0.00,,,0.00,Wunderground v.1.15,2013-01-16 17:12:00,
2013-01-16 11:16:00,29.7,22.7,29.92,WSW,240,16.0,22.0,75,0.00,,,0.00,Wunderground v.1.15,2013-01-16 17:16:00,
2013-01-16 11:18:00,29.7,22.7,29.93,WSW,238,16.0,22.0,75,0.00,,,0.00,Wunderground v.1.15,2013-01-16 17:18:00,
2013-01-16 11:20:00,29.7,22.4,29.93,WSW,250,16.0,16.0,74,0.00,,,0.00,Wunderground v.1.15,2013-01-16 17:20:00,
2013-01-16 11:22:00,29.7,22.4,29.92,WNW,283,17.0,17.0,74,0.00,,,0.00,Wunderground v.1.15,2013-01-16 17:22:00,
2013-01-16 11:26:00,29.9,22.6,29.92,SW,221,17.0,21.0,74,0.00,,,0.00,Wunderground v.1.15,2013-01-16 17:26:00,
2013-01-16 11:28:00,30.0,23.0,29.92,WSW,240,17.0,21.0,75,0.00,,,0.00,Wunderground v.1.15,2013-01-16 17:28:00,
2013-01-16 11:30:00,30.1,23.1,29.92,SW,236,17.0,20.0,75,0.00,,,0.00,Wunderground v.1.15,2013-01-16 17:30:00,
2013-01-16 11:34:00,30.2,23.2,29.92,WSW,241,18.0,20.0,75,0.00,,,0.00,Wunderground v.1.15,2013-01-16 17:34:00,
2013-01-16 11:36:00,30.4,23.1,29.92,SSW,203,17.0,20.0,74,0.00,,,0.00,Wunderground v.1.15,2013-01-16 17:36:00,
2013-01-16 11:40:00,30.4,22.8,29.92,SW,222,18.0,24.0,73,0.00,,,0.00,Wunderground v.1.15,2013-01-16 17:40:00,
2013-01-16 11:44:00,30.6,23.3,29.91,SSW,212,19.0,24.0,74,0.00,,,0.00,Wunderground v.1.15,2013-01-16 17:44:00,
2013-01-16 11:46:00,30.6,23.0,29.91,SW,224,19.0,24.0,73,0.00,,,0.00,Wunderground v.1.15,2013-01-16 17:46:00,
2013-01-16 11:52:00,30.6,22.6,29.91,SW,219,20.0,24.0,72,0.00,,,0.01,Wunderground v.1.15,2013-01-16 17:52:00,
2013-01-16 11:56:00,30.7,23.7,29.91,SSW,200,20.0,24.0,75,0.00,,,0.01,Wunderground v.1.15,2013-01-16 17:56:00,
2013-01-16 11:58:00,30.8,23.2,29.91,SW,221,21.0,24.0,73,0.00,,,0.01,Wunderground v.1.15,2013-01-16 17:58:00,
2013-01-16 12:00:00,30.8,23.5,29.91,SW,215,21.0,22.0,74,0.00,,,0.01,Wunderground v.1.15,2013-01-16 18:00:00,
2013-01-16 12:02:00,30.9,23.6,29.90,West,266,20.0,22.0,74,0.00,,,0.01,Wunderground v.1.15,2013-01-16 18:02:00,
2013-01-16 12:06:00,31.2,23.9,29.90,SW,221,20.0,26.0,74,0.00,,,0.01,Wunderground v.1.15,2013-01-16 18:06:00,
2013-01-16 12:08:00,31.1,23.1,29.90,SSW,194,20.0,26.0,72,0.00,,,0.01,Wunderground v.1.15,2013-01-16 18:08:00,
2013-01-16 12:12:00,31.3,24.0,29.90,SW,235,19.0,19.0,74,0.00,,,0.01,Wunderground v.1.15,2013-01-16 18:12:00,
2013-01-16 12:14:00,31.3,23.6,29.90,SW,229,19.0,19.0,73,0.00,,,0.01,Wunderground v.1.15,2013-01-16 18:14:00,
2013-01-16 12:16:00,31.2,24.2,29.89,South,191,19.0,20.0,75,0.00,,,0.01,Wunderground v.1.15,2013-01-16 18:16:00,
2013-01-16 12:20:00,31.3,24.0,29.89,SSW,209,18.0,18.0,74,0.00,,,0.01,Wunderground v.1.15,2013-01-16 18:20:00,
2013-01-16 12:26:00,31.6,24.3,29.89,SW,235,19.0,19.0,74,0.00,,,0.01,Wunderground v.1.15,2013-01-16 18:26:00,
2013-01-16 12:28:00,31.6,24.3,29.89,SW,222,18.0,24.0,74,0.00,,,0.01,Wunderground v.1.15,2013-01-16 18:28:00,
2013-01-16 12:32:00,31.8,24.5,29.88,SSW,205,17.0,18.0,74,0.00,,,0.01,Wunderground v.1.15,2013-01-16 18:32:00,
2013-01-16 12:36:00,31.8,24.5,29.88,SW,233,17.0,22.0,74,0.00,,,0.01,Wunderground v.1.15,2013-01-16 18:36:00,
2013-01-16 12:38:00,31.8,25.1,29.89,WSW,242,17.0,22.0,76,0.00,,,0.01,Wunderground v.1.15,2013-01-16 18:38:00,
2013-01-16 12:40:00,32.0,25.3,29.89,SSW,211,17.0,17.0,76,0.00,,,0.01,Wunderground v.1.15,2013-01-16 18:40:00,
2013-01-16 12:46:00,32.1,25.1,29.88,WSW,256,17.0,20.0,75,0.00,,,0.01,Wunderground v.1.15,2013-01-16 18:46:00,
2013-01-16 12:48:00,32.1,24.4,29.89,SW,217,17.0,20.0,73,0.00,,,0.01,Wunderground v.1.15,2013-01-16 18:48:00,
2013-01-16 12:52:00,32.3,24.6,29.89,SW,215,18.0,21.0,73,0.00,,,0.01,Wunderground v.1.15,2013-01-16 18:52:00,
2013-01-16 12:56:00,32.4,24.7,29.89,West,265,18.0,21.0,73,0.00,,,0.01,Wunderground v.1.15,2013-01-16 18:56:00,
2013-01-16 12:58:00,32.5,25.5,29.89,WSW,252,18.0,21.0,75,0.00,,,0.01,Wunderground v.1.15,2013-01-16 18:58:00,
2013-01-16 13:04:00,32.5,25.8,29.89,West,274,15.0,19.0,76,0.00,,,0.01,Wunderground v.1.15,2013-01-16 19:04:00,
2013-01-16 13:06:00,32.5,24.8,29.89,SSW,211,15.0,19.0,73,0.00,,,0.01,Wunderground v.1.15,2013-01-16 19:06:00,
2013-01-16 13:12:00,32.5,25.5,29.89,WSW,245,13.0,15.0,75,0.00,,,0.01,Wunderground v.1.15,2013-01-16 19:12:00,
2013-01-16 13:16:00,32.5,25.5,29.89,SW,219,13.0,16.0,75,0.00,,,0.01,Wunderground v.1.15,2013-01-16 19:16:00,
2013-01-16 13:18:00,32.4,25.4,29.89,SW,235,14.0,16.0,75,0.00,,,0.01,Wunderground v.1.15,2013-01-16 19:18:00,
2013-01-16 13:22:00,32.4,26.0,29.90,SW,231,14.0,15.0,77,0.00,,,0.01,Wunderground v.1.15,2013-01-16 19:22:00,
2013-01-16 13:26:00,32.4,25.7,29.89,SSW,212,14.0,16.0,76,0.00,,,0.01,Wunderground v.1.15,2013-01-16 19:26:00,
2013-01-16 13:30:00,32.5,26.1,29.89,SW,235,13.0,14.0,77,0.00,,,0.01,Wunderground v.1.15,2013-01-16 19:30:00,
2013-01-16 13:32:00,32.5,26.1,29.89,SW,226,13.0,14.0,77,0.00,,,0.01,Wunderground v.1.15,2013-01-16 19:32:00,
2013-01-16 13:34:00,32.6,26.5,29.89,SW,228,13.0,14.0,78,0.00,,,0.01,Wunderground v.1.15,2013-01-16 19:34:00,
2013-01-16 13:36:00,32.7,26.6,29.89,SW,233,13.0,14.0,78,0.00,,,0.01,Wunderground v.1.15,2013-01-16 19:36:00,
2013-01-16 13:40:00,32.9,26.5,29.89,WSW,248,12.0,12.0,77,0.00,,,0.01,Wunderground v.1.15,2013-01-16 19:40:00,
2013-01-16 13:42:00,32.9,26.5,29.89,West,262,11.0,12.0,77,0.00,,,0.01,Wunderground v.1.15,2013-01-16 19:42:00,
2013-01-16 13:44:00,33.0,25.9,29.89,SW,215,11.0,12.0,75,0.00,,,0.01,Wunderground v.1.15,2013-01-16 19:44:00,
2013-01-16 13:48:00,33.1,26.4,29.89,WSW,255,12.0,12.0,76,0.00,,,0.01,Wunderground v.1.15,2013-01-16 19:48:00,
2013-01-16 13:50:00,33.1,26.0,29.90,WSW,252,13.0,13.0,75,0.00,,,0.01,Wunderground v.1.15,2013-01-16 19:50:00,
2013-01-16 13:52:00,33.1,26.7,29.90,WSW,239,13.0,13.0,77,0.00,,,0.01,Wunderground v.1.15,2013-01-16 19:52:00,
2013-01-16 13:56:00,33.2,26.8,29.90,SW,233,12.0,13.0,77,0.00,,,0.01,Wunderground v.1.15,2013-01-16 19:56:00,
2013-01-16 13:58:00,33.2,26.8,29.89,South,177,12.0,16.0,77,0.00,,,0.01,Wunderground v.1.15,2013-01-16 19:58:00,
2013-01-16 14:04:00,33.2,27.1,29.90,SSW,210,12.0,12.0,78,0.00,,,0.01,Wunderground v.1.15,2013-01-16 20:04:00,
2013-01-16 14:08:00,33.3,27.2,29.90,SW,225,12.0,13.0,78,0.00,,,0.01,Wunderground v.1.15,2013-01-16 20:08:00,
2013-01-16 14:10:00,33.3,26.9,29.90,SW,222,11.0,11.0,77,0.00,,,0.01,Wunderground v.1.15,2013-01-16 20:10:00,
2013-01-16 14:12:00,33.3,26.9,29.90,SSW,211,11.0,11.0,77,0.00,,,0.01,Wunderground v.1.15,2013-01-16 20:12:00,
2013-01-16 14:18:00,33.4,26.6,29.90,WNW,293,12.0,14.0,76,0.00,,,0.01,Wunderground v.1.15,2013-01-16 20:18:00,
2013-01-16 14:22:00,33.5,27.1,29.90,South,169,11.0,12.0,77,0.00,,,0.01,Wunderground v.1.15,2013-01-16 20:22:00,
2013-01-16 14:24:00,33.5,27.4,29.90,SSW,208,12.0,14.0,78,0.00,,,0.01,Wunderground v.1.15,2013-01-16 20:24:00,
2013-01-16 14:26:00,33.5,27.4,29.90,WNW,290,12.0,14.0,78,0.00,,,0.01,Wunderground v.1.15,2013-01-16 20:26:00,
2013-01-16 14:28:00,33.5,27.4,29.90,SW,231,11.0,14.0,78,0.00,,,0.01,Wunderground v.1.15,2013-01-16 20:28:00,
2013-01-16 14:32:00,33.5,27.1,29.90,SSW,209,11.0,13.0,77,0.00,,,0.01,Wunderground v.1.15,2013-01-16 20:32:00,
2013-01-16 14:34:00,33.5,27.4,29.90,WSW,248,10.0,15.0,78,0.00,,,0.01,Wunderground v.1.15,2013-01-16 20:34:00,
2013-01-16 14:38:00,33.5,27.4,29.90,SW,214,11.0,15.0,78,0.00,,,0.01,Wunderground v.1.15,2013-01-16 20:38:00,
2013-01-16 14:40:00,33.5,27.4,29.90,WSW,237,11.0,12.0,78,0.00,,,0.01,Wunderground v.1.15,2013-01-16 20:40:00,
2013-01-16 14:44:00,33.5,27.7,29.90,WSW,240,12.0,12.0,79,0.00,,,0.01,Wunderground v.1.15,2013-01-16 20:44:00,
2013-01-16 14:46:00,33.5,27.7,29.90,WSW,250,12.0,15.0,79,0.00,,,0.01,Wunderground v.1.15,2013-01-16 20:46:00,
2013-01-16 14:50:00,33.5,27.7,29.91,WNW,295,12.0,12.0,79,0.00,,,0.01,Wunderground v.1.15,2013-01-16 20:50:00,
2013-01-16 14:52:00,33.5,27.7,29.91,SW,219,12.0,14.0,79,0.00,,,0.01,Wunderground v.1.15,2013-01-16 20:52:00,
2013-01-16 14:56:00,33.5,28.0,29.91,SW,221,13.0,14.0,80,0.00,,,0.01,Wunderground v.1.15,2013-01-16 20:56:00,
2013-01-16 14:58:00,33.5,28.0,29.91,SSW,203,13.0,14.0,80,0.00,,,0.01,Wunderground v.1.15,2013-01-16 20:58:00,
2013-01-16 15:00:00,33.5,28.0,29.91,SW,218,13.0,13.0,80,0.00,,,0.01,Wunderground v.1.15,2013-01-16 21:00:00,
2013-01-16 15:02:00,33.5,28.0,29.91,WSW,242,13.0,13.0,80,0.00,,,0.01,Wunderground v.1.15,2013-01-16 21:02:00,
2013-01-16 15:04:00,33.6,28.1,29.91,SW,222,13.0,19.0,80,0.00,,,0.01,Wunderground v.1.15,2013-01-16 21:04:00,
2013-01-16 15:06:00,33.6,28.1,29.91,SW,214,13.0,19.0,80,0.00,,,0.01,Wunderground v.1.15,2013-01-16 21:06:00,
2013-01-16 15:08:00,33.6,28.1,29.91,SW,228,13.0,19.0,80,0.00,,,0.01,Wunderground v.1.15,2013-01-16 21:08:00,
2013-01-16 15:10:00,33.7,28.2,29.91,WSW,240,14.0,17.0,80,0.00,,,0.01,Wunderground v.1.15,2013-01-16 21:10:00,
2013-01-16 15:14:00,33.7,28.2,29.92,SSW,202,14.0,17.0,80,0.00,,,0.01,Wunderground v.1.15,2013-01-16 21:14:00,
2013-01-16 15:18:00,33.8,28.6,29.92,SW,221,13.0,17.0,81,0.00,,,0.01,Wunderground v.1.15,2013-01-16 21:18:00,
2013-01-16 15:20:00,33.8,28.6,29.92,SW,228,12.0,13.0,81,0.00,,,0.01,Wunderground v.1.15,2013-01-16 21:20:00,
2013-01-16 15:22:00,33.8,28.6,29.92,SSW,211,11.0,13.0,81,0.00,,,0.01,Wunderground v.1.15,2013-01-16 21:22:00,
2013-01-16 15:24:00,33.8,28.6,29.93,WSW,245,11.0,13.0,81,0.00,,,0.01,Wunderground v.1.15,2013-01-16 21:24:00,
2013-01-16 15:28:00,33.8,28.6,29.92,SW,225,11.0,14.0,81,0.00,,,0.01,Wunderground v.1.15,2013-01-16 21:28:00,
2013-01-16 15:30:00,33.8,28.6,29.93,SW,225,12.0,12.0,81,0.00,,,0.01,Wunderground v.1.15,2013-01-16 21:30:00,
2013-01-16 15:32:00,33.8,28.6,29.93,WSW,245,12.0,12.0,81,0.00,,,0.01,Wunderground v.1.15,2013-01-16 21:32:00,
2013-01-16 15:36:00,33.8,28.6,29.93,SW,224,12.0,12.0,81,0.00,,,0.01,Wunderground v.1.15,2013-01-16 21:36:00,
2013-01-16 15:38:00,33.8,28.6,29.93,SW,219,11.0,12.0,81,0.00,,,0.01,Wunderground v.1.15,2013-01-16 21:38:00,
2013-01-16 15:40:00,33.7,28.5,29.93,SW,225,11.0,11.0,81,0.00,,,0.01,Wunderground v.1.15,2013-01-16 21:40:00,
2013-01-16 15:42:00,33.7,28.8,29.93,SW,217,10.0,14.0,82,0.00,,,0.01,Wunderground v.1.15,2013-01-16 21:42:00,
2013-01-16 15:46:00,33.8,28.6,29.93,SW,222,11.0,14.0,81,0.00,,,0.01,Wunderground v.1.15,2013-01-16 21:46:00,
2013-01-16 15:48:00,33.9,28.7,29.93,SW,222,11.0,15.0,81,0.00,,,0.01,Wunderground v.1.15,2013-01-16 21:48:00,
2013-01-16 15:52:00,34.0,28.5,29.94,SW,216,13.0,14.0,80,0.00,,,0.01,Wunderground v.1.15,2013-01-16 21:52:00,
2013-01-16 15:56:00,33.9,28.7,29.94,WSW,240,13.0,14.0,81,0.00,,,0.01,Wunderground v.1.15,2013-01-16 21:56:00,
2013-01-16 15:58:00,33.9,28.7,29.94,SW,222,13.0,14.0,81,0.00,,,0.01,Wunderground v.1.15,2013-01-16 21:58:00,
2013-01-16 16:00:00,33.9,28.7,29.94,West,279,12.0,12.0,81,0.00,,,0.01,Wunderground v.1.15,2013-01-16 22:00:00,
2013-01-16 16:02:00,33.9,28.7,29.94,SSW,200,12.0,13.0,81,0.00,,,0.01,Wunderground v.1.15,2013-01-16 22:02:00,
2013-01-16 16:06:00,33.9,28.7,29.95,SW,214,12.0,14.0,81,0.00,,,0.01,Wunderground v.1.15,2013-01-16 22:06:00,
2013-01-16 16:10:00,33.9,28.7,29.95,SW,215,12.0,13.0,81,0.00,,,0.01,Wunderground v.1.15,2013-01-16 22:10:00,
2013-01-16 16:14:00,33.9,28.4,29.96,WSW,250,12.0,13.0,80,0.00,,,0.01,Wunderground v.1.15,2013-01-16 22:14:00,
2013-01-16 16:18:00,33.9,28.7,29.96,West,263,11.0,13.0,81,0.00,,,0.01,Wunderground v.1.15,2013-01-16 22:18:00,
2013-01-16 16:24:00,34.0,28.5,29.96,SW,215,10.0,13.0,80,0.00,,,0.01,Wunderground v.1.15,2013-01-16 22:24:00,
2013-01-16 16:26:00,34.0,28.8,29.96,WSW,240,10.0,13.0,81,0.00,,,0.01,Wunderground v.1.15,2013-01-16 22:26:00,
2013-01-16 16:28:00,34.0,28.8,29.96,West,259,10.0,13.0,81,0.00,,,0.01,Wunderground v.1.15,2013-01-16 22:28:00,
2013-01-16 16:32:00,33.9,28.7,29.96,SSW,210,10.0,12.0,81,0.00,,,0.01,Wunderground v.1.15,2013-01-16 22:32:00,
2013-01-16 16:34:00,33.9,28.7,29.97,WSW,237,9.0,12.0,81,0.00,,,0.01,Wunderground v.1.15,2013-01-16 22:34:00,
2013-01-16 16:38:00,33.9,28.7,29.97,WSW,242,9.0,12.0,81,0.00,,,0.01,Wunderground v.1.15,2013-01-16 22:38:00,
2013-01-16 16:40:00,33.9,28.7,29.97,WSW,250,10.0,10.0,81,0.00,,,0.01,Wunderground v.1.15,2013-01-16 22:40:00,
2013-01-16 16:42:00,34.0,28.8,29.97,WSW,238,9.0,12.0,81,0.00,,,0.01,Wunderground v.1.15,2013-01-16 22:42:00,
2013-01-16 16:44:00,33.9,28.7,29.97,SW,214,10.0,12.0,81,0.00,,,0.01,Wunderground v.1.15,2013-01-16 22:44:00,
2013-01-16 16:46:00,33.9,28.7,29.97,SW,219,10.0,12.0,81,0.00,,,0.01,Wunderground v.1.15,2013-01-16 22:46:00,
2013-01-16 16:52:00,33.6,29.0,29.97,WSW,239,9.0,9.0,83,0.00,,,0.01,Wunderground v.1.15,2013-01-16 22:52:00,
2013-01-16 16:54:00,33.5,28.9,29.97,SW,215,9.0,10.0,83,0.00,,,0.01,Wunderground v.1.15,2013-01-16 22:54:00,
2013-01-16 16:56:00,33.4,29.1,29.97,SSE,162,8.0,10.0,84,0.00,,,0.01,Wunderground v.1.15,2013-01-16 22:56:00,
2013-01-16 17:00:00,33.2,29.2,29.97,West,259,7.0,7.0,85,0.00,,,0.01,Wunderground v.1.15,2013-01-16 23:00:00,
2013-01-16 17:02:00,33.1,29.1,29.97,SW,233,7.0,7.0,85,0.00,,,0.01,Wunderground v.1.15,2013-01-16 23:02:00,
2013-01-16 17:08:00,32.9,28.9,29.97,SW,224,7.0,8.0,85,0.00,,,0.01,Wunderground v.1.15,2013-01-16 23:08:00,
2013-01-16 17:10:00,32.9,28.9,29.98,SW,222,7.0,9.0,85,0.00,,,0.01,Wunderground v.1.15,2013-01-16 23:10:00,
2013-01-16 17:12:00,32.9,28.9,29.98,SSW,205,7.0,9.0,85,0.00,,,0.01,Wunderground v.1.15,2013-01-16 23:12:00,
2013-01-16 17:18:00,32.9,28.9,29.97,WSW,250,8.0,10.0,85,0.00,,,0.01,Wunderground v.1.15,2013-01-16 23:18:00,
2013-01-16 17:24:00,32.7,28.7,29.97,SW,231,9.0,9.0,85,0.00,,,0.01,Wunderground v.1.15,2013-01-16 23:24:00,
2013-01-16 17:26:00,32.6,28.6,29.98,SW,214,8.0,9.0,85,0.00,,,0.01,Wunderground v.1.15,2013-01-16 23:26:00,
2013-01-16 17:30:00,32.3,28.3,29.98,WSW,248,8.0,8.0,85,0.00,,,0.01,Wunderground v.1.15,2013-01-16 23:30:00,
2013-01-16 17:36:00,32.0,28.0,29.98,SW,222,7.0,10.0,85,0.00,,,0.01,Wunderground v.1.15,2013-01-16 23:36:00,
2013-01-16 17:38:00,32.0,28.0,29.98,SW,219,7.0,10.0,85,0.00,,,0.01,Wunderground v.1.15,2013-01-16 23:38:00,
2013-01-16 17:44:00,31.7,27.7,29.98,SW,222,7.0,8.0,85,0.00,,,0.01,Wunderground v.1.15,2013-01-16 23:44:00,
2013-01-16 17:48:00,31.5,27.5,29.99,SW,215,7.0,8.0,85,0.00,,,0.01,Wunderground v.1.15,2013-01-16 23:48:00,
2013-01-16 17:50:00,31.5,27.5,29.99,SW,219,7.0,7.0,85,0.00,,,0.01,Wunderground v.1.15,2013-01-16 23:50:00,
2013-01-16 17:56:00,31.2,27.5,29.99,SW,216,7.0,7.0,86,0.00,,,0.01,Wunderground v.1.15,2013-01-16 23:56:00,
2013-01-16 17:58:00,31.2,27.5,29.99,SW,222,7.0,7.0,86,0.00,,,0.01,Wunderground v.1.15,2013-01-16 23:58:00,
2013-01-16 18:02:00,31.1,27.4,29.99,SW,224,7.0,7.0,86,0.00,,,0.01,Wunderground v.1.15,2013-01-17 00:02:00,
2013-01-16 18:04:00,31.2,27.5,29.99,SW,235,7.0,7.0,86,0.00,,,0.01,Wunderground v.1.15,2013-01-17 00:04:00,
2013-01-16 18:08:00,31.1,27.4,30.00,SSW,203,7.0,7.0,86,0.00,,,0.01,Wunderground v.1.15,2013-01-17 00:08:00,
2013-01-16 18:10:00,31.0,27.3,29.99,SW,217,6.0,8.0,86,0.00,,,0.01,Wunderground v.1.15,2013-01-17 00:10:00,
2013-01-16 18:14:00,30.9,27.2,30.00,SSW,212,6.0,8.0,86,0.00,,,0.01,Wunderground v.1.15,2013-01-17 00:14:00,
2013-01-16 18:16:00,30.9,27.5,30.00,SW,215,6.0,8.0,87,0.00,,,0.01,Wunderground v.1.15,2013-01-17 00:16:00,
2013-01-16 18:20:00,31.0,27.6,30.00,SSW,210,7.0,7.0,87,0.00,,,0.01,Wunderground v.1.15,2013-01-17 00:20:00,
2013-01-16 18:22:00,31.0,27.6,30.00,SW,222,7.0,7.0,87,0.00,,,0.01,Wunderground v.1.15,2013-01-17 00:22:00,
2013-01-16 18:24:00,30.9,27.5,30.01,SSW,210,7.0,7.0,87,0.00,,,0.01,Wunderground v.1.15,2013-01-17 00:24:00,
2013-01-16 18:26:00,30.9,27.5,30.01,WSW,240,6.0,7.0,87,0.00,,,0.01,Wunderground v.1.15,2013-01-17 00:26:00,
2013-01-16 18:32:00,30.6,27.2,30.00,SW,222,6.0,7.0,87,0.00,,,0.01,Wunderground v.1.15,2013-01-17 00:32:00,
2013-01-16 18:34:00,30.4,26.7,30.01,SW,235,5.0,7.0,86,0.00,,,0.01,Wunderground v.1.15,2013-01-17 00:34:00,
2013-01-16 18:38:00,29.9,26.5,30.01,SW,214,4.0,7.0,87,0.00,,,0.01,Wunderground v.1.15,2013-01-17 00:38:00,
2013-01-16 18:42:00,29.6,26.2,30.01,SSW,203,3.0,7.0,87,0.00,,,0.01,Wunderground v.1.15,2013-01-17 00:42:00,
2013-01-16 18:44:00,29.5,26.4,30.01,SSW,201,2.0,7.0,88,0.00,,,0.01,Wunderground v.1.15,2013-01-17 00:44:00,
2013-01-16 18:46:00,29.4,26.3,30.02,WSW,252,2.0,7.0,88,0.00,,,0.01,Wunderground v.1.15,2013-01-17 00:46:00,
2013-01-16 18:48:00,29.3,26.2,30.02,SW,219,2.0,7.0,88,0.00,,,0.01,Wunderground v.1.15,2013-01-17 00:48:00,
2013-01-16 18:50:00,29.2,26.1,30.01,SSW,200,2.0,7.0,88,0.00,,,0.01,Wunderground v.1.15,2013-01-17 00:50:00,
2013-01-16 18:52:00,29.2,26.4,30.01,SSW,210,2.0,7.0,89,0.00,,,0.01,Wunderground v.1.15,2013-01-17 00:52:00,
2013-01-16 18:54:00,29.1,26.3,30.01,SSW,203,2.0,7.0,89,0.00,,,0.01,Wunderground v.1.15,2013-01-17 00:54:00,
2013-01-16 18:58:00,28.9,26.1,30.02,SW,215,2.0,7.0,89,0.00,,,0.01,Wunderground v.1.15,2013-01-17 00:58:00,
2013-01-16 19:00:00,29.0,26.2,30.02,SSW,212,2.0,7.0,89,0.00,,,0.01,Wunderground v.1.15,2013-01-17 01:00:00,
2013-01-16 19:02:00,29.0,26.2,30.02,SW,219,2.0,7.0,89,0.00,,,0.01,Wunderground v.1.15,2013-01-17 01:02:00,
2013-01-16 19:06:00,29.2,26.4,30.02,WSW,257,2.0,7.0,89,0.00,,,0.01,Wunderground v.1.15,2013-01-17 01:06:00,
2013-01-16 19:10:00,29.1,26.3,30.02,WSW,238,2.0,2.0,89,0.00,,,0.01,Wunderground v.1.15,2013-01-17 01:10:00,
2013-01-16 19:16:00,29.3,26.7,30.03,WSW,239,2.0,7.0,90,0.00,,,0.01,Wunderground v.1.15,2013-01-17 01:16:00,
2013-01-16 19:18:00,29.5,26.9,30.03,SSW,211,3.0,7.0,90,0.00,,,0.01,Wunderground v.1.15,2013-01-17 01:18:00,
2013-01-16 19:20:00,29.7,27.1,30.03,SSW,208,3.0,7.0,90,0.00,,,0.01,Wunderground v.1.15,2013-01-17 01:20:00,
2013-01-16 19:24:00,29.9,27.1,30.03,SW,214,3.0,7.0,89,0.00,,,0.01,Wunderground v.1.15,2013-01-17 01:24:00,
2013-01-16 19:26:00,30.0,27.2,30.03,SW,224,3.0,7.0,89,0.00,,,0.01,Wunderground v.1.15,2013-01-17 01:26:00,
2013-01-16 19:28:00,30.2,27.6,30.03,SW,219,3.0,7.0,90,0.00,,,0.01,Wunderground v.1.15,2013-01-17 01:28:00,
2013-01-16 19:32:00,30.5,27.6,30.03,SW,217,4.0,7.0,89,0.00,,,0.01,Wunderground v.1.15,2013-01-17 01:32:00,
2013-01-16 19:34:00,30.7,27.8,30.03,SW,230,4.0,7.0,89,0.00,,,0.01,Wunderground v.1.15,2013-01-17 01:34:00,
2013-01-16 19:36:00,30.8,27.9,30.04,WSW,257,4.0,7.0,89,0.00,,,0.01,Wunderground v.1.15,2013-01-17 01:36:00,
2013-01-16 19:40:00,31.0,28.1,30.03,SW,231,4.0,7.0,89,0.00,,,0.01,Wunderground v.1.15,2013-01-17 01:40:00,
2013-01-16 19:42:00,31.1,28.2,30.03,WSW,245,3.0,7.0,89,0.00,,,0.01,Wunderground v.1.15,2013-01-17 01:42:00,
2013-01-16 19:48:00,31.2,28.3,30.04,SSW,203,4.0,7.0,89,0.00,,,0.01,Wunderground v.1.15,2013-01-17 01:48:00,
2013-01-16 19:50:00,31.2,28.3,30.04,SSW,192,4.0,7.0,89,0.00,,,0.01,Wunderground v.1.15,2013-01-17 01:50:00,
2013-01-16 19:52:00,31.2,28.3,30.04,SW,215,3.0,7.0,89,0.00,,,0.01,Wunderground v.1.15,2013-01-17 01:52:00,
2013-01-16 19:54:00,31.1,28.5,30.04,SSW,194,3.0,7.0,90,0.00,,,0.01,Wunderground v.1.15,2013-01-17 01:54:00,
2013-01-16 20:00:00,31.0,28.4,30.04,South,188,3.0,7.0,90,0.00,,,0.01,Wunderground v.1.15,2013-01-17 02:00:00,
2013-01-16 20:04:00,31.1,28.5,30.05,SW,233,3.0,7.0,90,0.00,,,0.01,Wunderground v.1.15,2013-01-17 02:04:00,
2013-01-16 20:06:00,31.1,28.8,30.05,SW,236,3.0,7.0,91,0.00,,,0.01,Wunderground v.1.15,2013-01-17 02:06:00,
2013-01-16 20:08:00,31.1,28.8,30.05,WSW,253,3.0,7.0,91,0.00,,,0.01,Wunderground v.1.15,2013-01-17 02:08:00,
2013-01-16 20:10:00,31.2,28.9,30.05,SSW,208,3.0,7.0,91,0.00,,,0.01,Wunderground v.1.15,2013-01-17 02:10:00,
2013-01-16 20:14:00,31.3,29.0,30.05,SSW,204,3.0,7.0,91,0.00,,,0.01,Wunderground v.1.15,2013-01-17 02:14:00,
2013-01-16 20:18:00,31.4,29.1,30.05,South,191,4.0,7.0,91,0.00,,,0.01,Wunderground v.1.15,2013-01-17 02:18:00,
2013-01-16 20:22:00,31.5,29.2,30.05,South,181,4.0,7.0,91,0.00,,,0.01,Wunderground v.1.15,2013-01-17 02:22:00,
2013-01-16 20:26:00,31.7,29.1,30.05,West,261,4.0,7.0,90,0.00,,,0.01,Wunderground v.1.15,2013-01-17 02:26:00,
2013-01-16 20:28:00,31.7,29.1,30.05,SW,217,4.0,7.0,90,0.00,,,0.01,Wunderground v.1.15,2013-01-17 02:28:00,
2013-01-16 20:32:00,31.7,29.1,30.05,SW,217,4.0,7.0,90,0.00,,,0.01,Wunderground v.1.15,2013-01-17 02:32:00,
2013-01-16 20:34:00,31.8,29.5,30.05,WSW,245,4.0,7.0,91,0.00,,,0.01,Wunderground v.1.15,2013-01-17 02:34:00,
2013-01-16 20:36:00,31.8,29.5,30.05,WSW,243,4.0,7.0,91,0.00,,,0.01,Wunderground v.1.15,2013-01-17 02:36:00,
2013-01-16 20:38:00,31.9,29.3,30.05,WSW,249,4.0,7.0,90,0.00,,,0.01,Wunderground v.1.15,2013-01-17 02:38:00,
2013-01-16 20:42:00,32.0,29.4,30.05,WSW,256,4.0,7.0,90,0.00,,,0.01,Wunderground v.1.15,2013-01-17 02:42:00,
2013-01-16 20:44:00,32.0,29.4,30.05,SW,214,4.0,7.0,90,0.00,,,0.01,Wunderground v.1.15,2013-01-17 02:44:00,
2013-01-16 20:46:00,32.1,29.8,30.06,South,191,3.0,7.0,91,0.00,,,0.01,Wunderground v.1.15,2013-01-17 02:46:00,
2013-01-16 20:48:00,32.1,29.8,30.06,SSW,208,3.0,7.0,91,0.00,,,0.01,Wunderground v.1.15,2013-01-17 02:48:00,
2013-01-16 20:50:00,32.1,29.8,30.06,SW,230,3.0,7.0,91,0.00,,,0.01,Wunderground v.1.15,2013-01-17 02:50:00,
2013-01-16 20:54:00,32.2,29.9,30.06,SW,219,3.0,7.0,91,0.00,,,0.01,Wunderground v.1.15,2013-01-17 02:54:00,
2013-01-16 20:56:00,32.3,30.0,30.06,SW,214,3.0,7.0,91,0.00,,,0.01,Wunderground v.1.15,2013-01-17 02:56:00,
2013-01-16 21:00:00,32.7,30.4,30.06,SSW,208,4.0,7.0,91,0.00,,,0.01,Wunderground v.1.15,2013-01-17 03:00:00,
2013-01-16 21:02:00,32.9,30.6,30.06,WSW,245,4.0,7.0,91,0.00,,,0.01,Wunderground v.1.15,2013-01-17 03:02:00,
2013-01-16 21:06:00,33.2,30.6,30.06,WSW,245,4.0,7.0,90,0.00,,,0.01,Wunderground v.1.15,2013-01-17 03:06:00,
2013-01-16 21:10:00,33.4,30.8,30.06,SW,216,3.0,7.0,90,0.00,,,0.01,Wunderground v.1.15,2013-01-17 03:10:00,
2013-01-16 21:12:00,33.4,30.8,30.06,SW,231,3.0,7.0,90,0.00,,,0.01,Wunderground v.1.15,2013-01-17 03:12:00,
2013-01-16 21:14:00,33.5,30.9,30.06,SW,231,3.0,7.0,90,0.00,,,0.01,Wunderground v.1.15,2013-01-17 03:14:00,
2013-01-16 21:20:00,33.5,30.9,30.06,WSW,238,3.0,3.0,90,0.00,,,0.01,Wunderground v.1.15,2013-01-17 03:20:00,
2013-01-16 21:24:00,33.5,30.9,30.06,SSW,208,2.0,7.0,90,0.00,,,0.01,Wunderground v.1.15,2013-01-17 03:24:00,
2013-01-16 21:26:00,33.4,30.8,30.06,SW,224,2.0,7.0,90,0.00,,,0.01,Wunderground v.1.15,2013-01-17 03:26:00,
2013-01-16 21:30:00,33.4,30.8,30.06,SW,214,2.0,2.0,90,0.00,,,0.01,Wunderground v.1.15,2013-01-17 03:30:00,
2013-01-16 21:34:00,33.4,31.1,30.06,SW,228,2.0,7.0,91,0.00,,,0.01,Wunderground v.1.15,2013-01-17 03:34:00,
2013-01-16 21:36:00,33.4,31.1,30.07,West,271,2.0,7.0,91,0.00,,,0.01,Wunderground v.1.15,2013-01-17 03:36:00,
2013-01-16 21:40:00,33.5,31.2,30.07,WNW,290,1.0,7.0,91,0.00,,,0.01,Wunderground v.1.15,2013-01-17 03:40:00,
2013-01-16 21:42:00,33.5,31.2,30.07,WNW,297,1.0,7.0,91,0.00,,,0.01,Wunderground v.1.15,2013-01-17 03:42:00,
2013-01-16 21:48:00,33.5,31.4,30.06,SW,228,1.0,7.0,92,0.00,,,0.01,Wunderground v.1.15,2013-01-17 03:48:00,
2013-01-16 21:50:00,33.5,31.4,30.06,WSW,246,1.0,7.0,92,0.00,,,0.01,Wunderground v.1.15,2013-01-17 03:50:00,
2013-01-16 21:52:00,33.5,31.4,30.06,WSW,240,2.0,7.0,92,0.00,,,0.01,Wunderground v.1.15,2013-01-17 03:52:00,
2013-01-16 21:54:00,33.6,31.5,30.06,WSW,248,2.0,7.0,92,0.00,,,0.01,Wunderground v.1.15,2013-01-17 03:54:00,
2013-01-16 21:58:00,33.7,31.6,30.06,West,276,3.0,7.0,92,0.00,,,0.01,Wunderground v.1.15,2013-01-17 03:58:00,
2013-01-16 22:00:00,33.8,31.7,30.06,West,271,3.0,3.0,92,0.00,,,0.01,Wunderground v.1.15,2013-01-17 04:00:00,
2013-01-16 22:02:00,33.8,31.7,30.06,SW,236,3.0,7.0,92,0.00,,,0.01,Wunderground v.1.15,2013-01-17 04:02:00,
2013-01-16 22:06:00,33.9,31.8,30.06,WNW,285,3.0,7.0,92,0.00,,,0.01,Wunderground v.1.15,2013-01-17 04:06:00,
2013-01-16 22:08:00,33.9,31.8,30.06,WNW,290,2.0,7.0,92,0.00,,,0.01,Wunderground v.1.15,2013-01-17 04:08:00,
2013-01-16 22:12:00,33.9,31.8,30.06,WNW,287,2.0,7.0,92,0.00,,,0.01,Wunderground v.1.15,2013-01-17 04:12:00,
2013-01-16 22:14:00,33.9,31.8,30.06,West,259,2.0,7.0,92,0.00,,,0.01,Wunderground v.1.15,2013-01-17 04:14:00,
2013-01-16 22:18:00,33.9,31.8,30.06,WSW,239,2.0,7.0,92,0.00,,,0.01,Wunderground v.1.15,2013-01-17 04:18:00,
2013-01-16 22:20:00,33.9,31.8,30.06,SW,226,3.0,3.0,92,0.00,,,0.01,Wunderground v.1.15,2013-01-17 04:20:00,
2013-01-16 22:26:00,33.9,31.8,30.05,West,259,3.0,7.0,92,0.00,,,0.01,Wunderground v.1.15,2013-01-17 04:26:00,
2013-01-16 22:28:00,33.8,31.7,30.06,SW,220,3.0,7.0,92,0.00,,,0.01,Wunderground v.1.15,2013-01-17 04:28:00,
2013-01-16 22:32:00,33.8,31.7,30.06,WSW,248,3.0,7.0,92,0.00,,,0.01,Wunderground v.1.15,2013-01-17 04:32:00,
2013-01-16 22:36:00,33.8,31.7,30.05,West,267,3.0,7.0,92,0.00,,,0.01,Wunderground v.1.15,2013-01-17 04:36:00,
2013-01-16 22:38:00,33.8,31.7,30.05,SW,224,3.0,7.0,92,0.00,,,0.01,Wunderground v.1.15,2013-01-17 04:38:00,
2013-01-16 22:40:00,33.8,31.7,30.05,SW,214,4.0,4.0,92,0.00,,,0.01,Wunderground v.1.15,2013-01-17 04:40:00,
2013-01-16 22:44:00,33.7,31.6,30.05,SW,231,4.0,7.0,92,0.00,,,0.01,Wunderground v.1.15,2013-01-17 04:44:00,
2013-01-16 22:46:00,33.7,31.6,30.06,SSW,208,4.0,7.0,92,0.00,,,0.01,Wunderground v.1.15,2013-01-17 04:46:00,
2013-01-16 22:50:00,33.7,31.6,30.06,SW,219,3.0,7.0,92,0.00,,,0.01,Wunderground v.1.15,2013-01-17 04:50:00,
2013-01-16 22:52:00,33.7,31.6,30.06,SW,219,3.0,7.0,92,0.00,,,0.01,Wunderground v.1.15,2013-01-17 04:52:00,
2013-01-16 22:58:00,33.5,31.4,30.06,South,191,4.0,7.0,92,0.00,,,0.01,Wunderground v.1.15,2013-01-17 04:58:00,
2013-01-16 23:02:00,33.5,31.4,30.07,WSW,238,4.0,7.0,92,0.00,,,0.01,Wunderground v.1.15,2013-01-17 05:02:00,
2013-01-16 23:04:00,33.4,31.6,30.07,SW,222,3.0,7.0,93,0.00,,,0.01,Wunderground v.1.15,2013-01-17 05:04:00,
2013-01-16 23:10:00,33.5,31.7,30.08,SW,220,2.0,2.0,93,0.00,,,0.01,Wunderground v.1.15,2013-01-17 05:10:00,
2013-01-16 23:12:00,33.5,31.4,30.08,West,271,2.0,7.0,92,0.00,,,0.01,Wunderground v.1.15,2013-01-17 05:12:00,
2013-01-16 23:16:00,33.5,31.4,30.08,West,278,1.0,7.0,92,0.00,,,0.01,Wunderground v.1.15,2013-01-17 05:16:00,
2013-01-16 23:18:00,33.5,31.4,30.08,WSW,240,1.0,7.0,92,0.00,,,0.01,Wunderground v.1.15,2013-01-17 05:18:00,
2013-01-16 23:20:00,33.5,31.4,30.08,WSW,242,1.0,7.0,92,0.00,,,0.01,Wunderground v.1.15,2013-01-17 05:20:00,
2013-01-16 23:24:00,33.5,31.7,30.09,WSW,257,1.0,7.0,93,0.00,,,0.01,Wunderground v.1.15,2013-01-17 05:24:00,
2013-01-16 23:28:00,33.5,31.4,30.09,West,278,1.0,7.0,92,0.00,,,0.01,Wunderground v.1.15,2013-01-17 05:28:00,
2013-01-16 23:30:00,33.4,31.3,30.09,NW,307,1.0,7.0,92,0.00,,,0.01,Wunderground v.1.15,2013-01-17 05:30:00,
2013-01-16 23:32:00,33.3,31.5,30.10,WNW,298,2.0,7.0,93,0.00,,,0.01,Wunderground v.1.15,2013-01-17 05:32:00,
2013-01-16 23:36:00,33.3,31.5,30.10,West,262,2.0,7.0,93,0.00,,,0.01,Wunderground v.1.15,2013-01-17 05:36:00,
2013-01-16 23:38:00,33.4,31.6,30.10,WNW,288,2.0,7.0,93,0.00,,,0.01,Wunderground v.1.15,2013-01-17 05:38:00,
2013-01-16 23:42:00,33.4,31.6,30.11,West,279,2.0,7.0,93,0.00,,,0.01,Wunderground v.1.15,2013-01-17 05:42:00,
2013-01-16 23:44:00,33.5,31.7,30.11,West,281,2.0,7.0,93,0.00,,,0.01,Wunderground v.1.15,2013-01-17 05:44:00,
2013-01-16 23:48:00,33.5,31.7,30.11,NW,321,1.0,7.0,93,0.00,,,0.01,Wunderground v.1.15,2013-01-17 05:48:00,
2013-01-16 23:50:00,33.5,31.7,30.11,WNW,298,1.0,1.0,93,0.00,,,0.01,Wunderground v.1.15,2013-01-17 05:50:00,
2013-01-16 23:52:00,33.5,31.7,30.11,WNW,288,1.0,2.0,93,0.00,,,0.01,Wunderground v.1.15,2013-01-17 05:52:00,
2013-01-16 23:56:00,33.7,31.9,30.12,WNW,285,1.0,7.0,93,0.00,,,0.01,Wunderground v.1.15,2013-01-17 05:56:00,
2013-01-16 23:58:00,33.7,31.9,30.12,WNW,293,2.0,7.0,93,0.00,,,0.01,Wunderground v.1.15,2013-01-17 05:58:00,